sensor_id;sensor_type;location;lat;lon;timestamp;P1;durP1;ratioP1;P2;durP2;ratioP2
70667;SDS011;58242;51.250;-1.118;2022-09-03T00:01:49;6.18;;;5.75;;
70667;SDS011;58242;51.250;-1.118;2022-09-03T00:04:27;5.05;;;4.72;;
70667;SDS011;58242;51.250;-1.118;2022-09-03T00:07:01;6.32;;;5.75;;
70667;SDS011;58242;51.250;-1.118;2022-09-03T00:09:42;6.38;;;5.78;;
70667;SDS011;58242;51.250;-1.118;2022-09-03T00:12:13;5.70;;;5.22;;
70667;SDS011;58242;51.250;-1.118;2022-09-03T00:14:51;5.80;;;5.40;;
70667;SDS011;58242;51.250;-1.118;2022-09-03T00:17:23;6.32;;;5.90;;
70667;SDS011;58242;51.250;-1.118;2022-09-03T00:20:38;6.25;;;5.78;;
70667;SDS011;58242;51.250;-1.118;2022-09-03T00:22:52;7.90;;;6.63;;
70667;SDS011;58242;51.250;-1.118;2022-09-03T00:25:23;8.00;;;7.30;;
70667;SDS011;58242;51.250;-1.118;2022-09-03T00:27:53;7.15;;;6.55;;
70667;SDS011;58242;51.250;-1.118;2022-09-03T00:30:22;6.55;;;5.95;;
70667;SDS011;58242;51.250;-1.118;2022-09-03T00:35:35;7.95;;;7.25;;
70667;SDS011;58242;51.250;-1.118;2022-09-03T00:38:05;7.15;;;6.55;;
70667;SDS011;58242;51.250;-1.118;2022-09-03T00:46:38;7.30;;;6.80;;
70667;SDS011;58242;51.250;-1.118;2022-09-03T00:54:54;7.40;;;6.82;;
70667;SDS011;58242;51.250;-1.118;2022-09-03T00:59:56;7.65;;;6.95;;
70667;SDS011;58242;51.250;-1.118;2022-09-03T01:02:35;9.88;;;9.02;;
70667;SDS011;58242;51.250;-1.118;2022-09-03T01:10:35;10.55;;;9.60;;
70667;SDS011;58242;51.250;-1.118;2022-09-03T01:13:13;13.75;;;12.32;;
70667;SDS011;58242;51.250;-1.118;2022-09-03T01:21:29;9.02;;;8.32;;
70667;SDS011;58242;51.250;-1.118;2022-09-03T01:29:33;8.00;;;7.30;;
70667;SDS011;58242;51.250;-1.118;2022-09-03T01:32:26;8.00;;;7.30;;
70667;SDS011;58242;51.250;-1.118;2022-09-03T01:42:31;8.30;;;7.60;;
70667;SDS011;58242;51.250;-1.118;2022-09-03T01:50:38;9.15;;;8.43;;
70667;SDS011;58242;51.250;-1.118;2022-09-03T01:58:53;8.57;;;7.80;;
70667;SDS011;58242;51.250;-1.118;2022-09-03T02:01:28;7.70;;;7.10;;
70667;SDS011;58242;51.250;-1.118;2022-09-03T02:03:57;8.23;;;7.47;;
70667;SDS011;58242;51.250;-1.118;2022-09-03T02:06:24;8.75;;;7.85;;
70667;SDS011;58242;51.250;-1.118;2022-09-03T02:08:51;7.80;;;7.20;;
70667;SDS011;58242;51.250;-1.118;2022-09-03T02:11:17;7.50;;;6.97;;
70667;SDS011;58242;51.250;-1.118;2022-09-03T02:13:49;8.15;;;7.55;;
70667;SDS011;58242;51.250;-1.118;2022-09-03T02:16:20;8.73;;;8.02;;
70667;SDS011;58242;51.250;-1.118;2022-09-03T02:18:55;8.95;;;8.25;;
70667;SDS011;58242;51.250;-1.118;2022-09-03T02:21:23;9.88;;;9.13;;
70667;SDS011;58242;51.250;-1.118;2022-09-03T02:23:51;9.30;;;8.50;;
70667;SDS011;58242;51.250;-1.118;2022-09-03T02:26:18;8.52;;;7.75;;
70667;SDS011;58242;51.250;-1.118;2022-09-03T02:28:46;8.05;;;7.53;;
70667;SDS011;58242;51.250;-1.118;2022-09-03T02:31:12;8.05;;;7.38;;
70667;SDS011;58242;51.250;-1.118;2022-09-03T02:33:39;7.72;;;7.22;;
70667;SDS011;58242;51.250;-1.118;2022-09-03T02:36:07;8.03;;;7.33;;
70667;SDS011;58242;51.250;-1.118;2022-09-03T02:38:35;8.63;;;8.00;;
70667;SDS011;58242;51.250;-1.118;2022-09-03T02:41:01;9.40;;;8.68;;
70667;SDS011;58242;51.250;-1.118;2022-09-03T02:43:29;7.57;;;7.00;;
70667;SDS011;58242;51.250;-1.118;2022-09-03T02:46:02;8.50;;;7.85;;
70667;SDS011;58242;51.250;-1.118;2022-09-03T02:48:28;7.63;;;7.13;;
70667;SDS011;58242;51.250;-1.118;2022-09-03T02:50:54;8.68;;;7.95;;
70667;SDS011;58242;51.250;-1.118;2022-09-03T02:53:19;8.75;;;8.05;;
70667;SDS011;58242;51.250;-1.118;2022-09-03T02:55:45;8.68;;;7.97;;
70667;SDS011;58242;51.250;-1.118;2022-09-03T02:58:10;8.07;;;7.47;;
70667;SDS011;58242;51.250;-1.118;2022-09-03T03:00:36;7.50;;;6.82;;
70667;SDS011;58242;51.250;-1.118;2022-09-03T03:03:04;9.18;;;8.27;;
70667;SDS011;58242;51.250;-1.118;2022-09-03T03:05:35;7.72;;;7.13;;
70667;SDS011;58242;51.250;-1.118;2022-09-03T03:08:02;6.82;;;6.32;;
70667;SDS011;58242;51.250;-1.118;2022-09-03T03:10:28;8.13;;;7.43;;
70667;SDS011;58242;51.250;-1.118;2022-09-03T03:12:53;8.30;;;7.70;;
70667;SDS011;58242;51.250;-1.118;2022-09-03T03:15:18;8.43;;;7.72;;
70667;SDS011;58242;51.250;-1.118;2022-09-03T03:17:44;9.10;;;8.40;;
70667;SDS011;58242;51.250;-1.118;2022-09-03T03:20:09;8.10;;;7.40;;
70667;SDS011;58242;51.250;-1.118;2022-09-03T03:22:35;7.75;;;7.18;;
70667;SDS011;58242;51.250;-1.118;2022-09-03T03:25:00;7.97;;;7.38;;
70667;SDS011;58242;51.250;-1.118;2022-09-03T03:27:26;8.20;;;7.57;;
70667;SDS011;58242;51.250;-1.118;2022-09-03T03:29:51;9.50;;;8.70;;
70667;SDS011;58242;51.250;-1.118;2022-09-03T03:32:18;9.40;;;8.70;;
70667;SDS011;58242;51.250;-1.118;2022-09-03T03:34:44;9.05;;;8.35;;
70667;SDS011;58242;51.250;-1.118;2022-09-03T03:37:09;10.45;;;9.45;;
70667;SDS011;58242;51.250;-1.118;2022-09-03T03:39:34;9.43;;;8.63;;
70667;SDS011;58242;51.250;-1.118;2022-09-03T03:42:00;8.30;;;7.53;;
70667;SDS011;58242;51.250;-1.118;2022-09-03T03:44:25;7.57;;;6.97;;
70667;SDS011;58242;51.250;-1.118;2022-09-03T03:46:50;7.85;;;7.20;;
70667;SDS011;58242;51.250;-1.118;2022-09-03T03:49:16;8.07;;;7.50;;
70667;SDS011;58242;51.250;-1.118;2022-09-03T03:51:41;8.18;;;7.63;;
70667;SDS011;58242;51.250;-1.118;2022-09-03T03:54:07;8.07;;;7.47;;
70667;SDS011;58242;51.250;-1.118;2022-09-03T03:56:32;7.97;;;7.28;;
70667;SDS011;58242;51.250;-1.118;2022-09-03T03:58:58;7.63;;;7.03;;
70667;SDS011;58242;51.250;-1.118;2022-09-03T04:01:24;9.02;;;8.23;;
70667;SDS011;58242;51.250;-1.118;2022-09-03T04:03:50;8.57;;;7.88;;
70667;SDS011;58242;51.250;-1.118;2022-09-03T04:06:17;9.98;;;8.00;;
70667;SDS011;58242;51.250;-1.118;2022-09-03T04:08:44;7.70;;;7.10;;
70667;SDS011;58242;51.250;-1.118;2022-09-03T04:11:12;7.10;;;6.53;;
70667;SDS011;58242;51.250;-1.118;2022-09-03T04:13:40;9.05;;;8.25;;
70667;SDS011;58242;51.250;-1.118;2022-09-03T04:16:14;9.68;;;8.90;;
70667;SDS011;58242;51.250;-1.118;2022-09-03T04:18:44;10.90;;;10.00;;
70667;SDS011;58242;51.250;-1.118;2022-09-03T04:21:11;8.98;;;8.30;;
70667;SDS011;58242;51.250;-1.118;2022-09-03T04:23:43;7.85;;;7.25;;
70667;SDS011;58242;51.250;-1.118;2022-09-03T04:26:10;7.65;;;7.05;;
70667;SDS011;58242;51.250;-1.118;2022-09-03T04:28:37;7.90;;;7.28;;
70667;SDS011;58242;51.250;-1.118;2022-09-03T04:31:04;11.85;;;10.65;;
70667;SDS011;58242;51.250;-1.118;2022-09-03T04:33:31;9.85;;;9.02;;
70667;SDS011;58242;51.250;-1.118;2022-09-03T04:36:02;11.23;;;10.23;;
70667;SDS011;58242;51.250;-1.118;2022-09-03T04:38:28;8.70;;;8.00;;
70667;SDS011;58242;51.250;-1.118;2022-09-03T04:40:53;9.20;;;8.40;;
70667;SDS011;58242;51.250;-1.118;2022-09-03T04:43:19;7.93;;;7.32;;
70667;SDS011;58242;51.250;-1.118;2022-09-03T04:45:44;9.23;;;8.43;;
70667;SDS011;58242;51.250;-1.118;2022-09-03T04:48:09;8.43;;;7.63;;
70667;SDS011;58242;51.250;-1.118;2022-09-03T04:50:35;8.23;;;7.63;;
70667;SDS011;58242;51.250;-1.118;2022-09-03T04:53:02;8.52;;;7.85;;
70667;SDS011;58242;51.250;-1.118;2022-09-03T04:55:32;8.05;;;7.40;;
70667;SDS011;58242;51.250;-1.118;2022-09-03T04:57:59;7.95;;;7.30;;
70667;SDS011;58242;51.250;-1.118;2022-09-03T05:00:24;7.95;;;7.45;;
70667;SDS011;58242;51.250;-1.118;2022-09-03T05:02:49;10.18;;;9.27;;
70667;SDS011;58242;51.250;-1.118;2022-09-03T05:05:16;10.63;;;9.73;;
70667;SDS011;58242;51.250;-1.118;2022-09-03T05:07:43;9.82;;;9.02;;
70667;SDS011;58242;51.250;-1.118;2022-09-03T05:10:09;9.63;;;8.82;;
70667;SDS011;58242;51.250;-1.118;2022-09-03T05:12:44;9.00;;;8.25;;
70667;SDS011;58242;51.250;-1.118;2022-09-03T05:15:12;10.05;;;9.25;;
70667;SDS011;58242;51.250;-1.118;2022-09-03T05:17:37;9.32;;;8.52;;
70667;SDS011;58242;51.250;-1.118;2022-09-03T05:20:03;9.55;;;8.85;;
70667;SDS011;58242;51.250;-1.118;2022-09-03T05:22:30;13.05;;;11.82;;
70667;SDS011;58242;51.250;-1.118;2022-09-03T05:24:55;11.63;;;10.63;;
70667;SDS011;58242;51.250;-1.118;2022-09-03T05:27:20;12.88;;;11.68;;
70667;SDS011;58242;51.250;-1.118;2022-09-03T05:29:46;11.00;;;10.02;;
70667;SDS011;58242;51.250;-1.118;2022-09-03T05:32:11;14.80;;;13.30;;
70667;SDS011;58242;51.250;-1.118;2022-09-03T05:34:37;13.35;;;12.15;;
70667;SDS011;58242;51.250;-1.118;2022-09-03T05:37:03;14.15;;;12.85;;
70667;SDS011;58242;51.250;-1.118;2022-09-03T05:39:28;15.88;;;14.38;;
70667;SDS011;58242;51.250;-1.118;2022-09-03T05:41:54;16.42;;;14.48;;
70667;SDS011;58242;51.250;-1.118;2022-09-03T05:44:19;11.38;;;10.38;;
70667;SDS011;58242;51.250;-1.118;2022-09-03T05:46:47;11.40;;;10.38;;
70667;SDS011;58242;51.250;-1.118;2022-09-03T05:49:14;10.40;;;9.50;;
70667;SDS011;58242;51.250;-1.118;2022-09-03T05:51:39;13.75;;;12.38;;
70667;SDS011;58242;51.250;-1.118;2022-09-03T05:54:06;13.25;;;11.95;;
70667;SDS011;58242;51.250;-1.118;2022-09-03T05:56:32;14.10;;;12.77;;
70667;SDS011;58242;51.250;-1.118;2022-09-03T05:59:00;10.63;;;9.73;;
70667;SDS011;58242;51.250;-1.118;2022-09-03T06:01:33;11.43;;;10.38;;
70667;SDS011;58242;51.250;-1.118;2022-09-03T06:04:04;11.00;;;9.90;;
70667;SDS011;58242;51.250;-1.118;2022-09-03T06:06:32;10.27;;;9.38;;
70667;SDS011;58242;51.250;-1.118;2022-09-03T06:09:00;10.02;;;9.07;;
70667;SDS011;58242;51.250;-1.118;2022-09-03T06:11:28;9.82;;;9.02;;
70667;SDS011;58242;51.250;-1.118;2022-09-03T06:13:54;11.20;;;10.15;;
70667;SDS011;58242;51.250;-1.118;2022-09-03T06:16:20;12.52;;;11.43;;
70667;SDS011;58242;51.250;-1.118;2022-09-03T06:18:46;11.60;;;10.40;;
70667;SDS011;58242;51.250;-1.118;2022-09-03T06:21:13;11.02;;;9.98;;
70667;SDS011;58242;51.250;-1.118;2022-09-03T06:23:39;10.50;;;9.50;;
70667;SDS011;58242;51.250;-1.118;2022-09-03T06:26:06;9.55;;;8.65;;
70667;SDS011;58242;51.250;-1.118;2022-09-03T06:28:34;10.45;;;9.45;;
70667;SDS011;58242;51.250;-1.118;2022-09-03T06:31:02;9.25;;;8.52;;
70667;SDS011;58242;51.250;-1.118;2022-09-03T06:33:29;10.35;;;8.93;;
70667;SDS011;58242;51.250;-1.118;2022-09-03T06:35:57;9.85;;;9.02;;
70667;SDS011;58242;51.250;-1.118;2022-09-03T06:38:24;9.02;;;8.23;;
70667;SDS011;58242;51.250;-1.118;2022-09-03T06:40:52;10.48;;;9.57;;
70667;SDS011;58242;51.250;-1.118;2022-09-03T06:43:18;10.15;;;9.25;;
70667;SDS011;58242;51.250;-1.118;2022-09-03T06:45:51;11.60;;;10.57;;
70667;SDS011;58242;51.250;-1.118;2022-09-03T06:48:17;13.50;;;12.18;;
70667;SDS011;58242;51.250;-1.118;2022-09-03T06:50:42;9.23;;;8.52;;
70667;SDS011;58242;51.250;-1.118;2022-09-03T06:53:08;8.93;;;7.95;;
70667;SDS011;58242;51.250;-1.118;2022-09-03T06:55:33;11.70;;;10.60;;
70667;SDS011;58242;51.250;-1.118;2022-09-03T06:57:59;9.88;;;9.15;;
70667;SDS011;58242;51.250;-1.118;2022-09-03T07:00:24;11.77;;;10.70;;
70667;SDS011;58242;51.250;-1.118;2022-09-03T07:02:55;10.55;;;9.55;;
70667;SDS011;58242;51.250;-1.118;2022-09-03T07:05:22;12.20;;;11.10;;
70667;SDS011;58242;51.250;-1.118;2022-09-03T07:07:50;11.25;;;10.15;;
70667;SDS011;58242;51.250;-1.118;2022-09-03T07:10:15;10.95;;;9.98;;
70667;SDS011;58242;51.250;-1.118;2022-09-03T07:15:10;11.93;;;10.93;;
70667;SDS011;58242;51.250;-1.118;2022-09-03T07:17:36;13.70;;;12.32;;
70667;SDS011;58242;51.250;-1.118;2022-09-03T07:20:01;11.80;;;10.80;;
70667;SDS011;58242;51.250;-1.118;2022-09-03T07:22:27;10.45;;;9.65;;
70667;SDS011;58242;51.250;-1.118;2022-09-03T07:24:52;12.25;;;10.85;;
70667;SDS011;58242;51.250;-1.118;2022-09-03T07:27:17;11.45;;;10.43;;
70667;SDS011;58242;51.250;-1.118;2022-09-03T07:29:43;14.32;;;13.05;;
70667;SDS011;58242;51.250;-1.118;2022-09-03T07:32:08;14.27;;;12.77;;
70667;SDS011;58242;51.250;-1.118;2022-09-03T07:34:34;13.27;;;12.07;;
70667;SDS011;58242;51.250;-1.118;2022-09-03T07:37:00;11.00;;;10.20;;
70667;SDS011;58242;51.250;-1.118;2022-09-03T07:39:25;12.32;;;11.32;;
70667;SDS011;58242;51.250;-1.118;2022-09-03T07:41:50;13.68;;;12.50;;
70667;SDS011;58242;51.250;-1.118;2022-09-03T07:44:16;13.45;;;12.35;;
70667;SDS011;58242;51.250;-1.118;2022-09-03T07:46:43;10.65;;;9.77;;
70667;SDS011;58242;51.250;-1.118;2022-09-03T07:49:10;9.95;;;9.15;;
70667;SDS011;58242;51.250;-1.118;2022-09-03T07:51:36;12.13;;;11.13;;
70667;SDS011;58242;51.250;-1.118;2022-09-03T07:54:03;11.75;;;10.75;;
70667;SDS011;58242;51.250;-1.118;2022-09-03T07:56:31;12.13;;;11.13;;
70667;SDS011;58242;51.250;-1.118;2022-09-03T07:58:59;13.85;;;12.75;;
70667;SDS011;58242;51.250;-1.118;2022-09-03T08:01:25;11.60;;;10.60;;
70667;SDS011;58242;51.250;-1.118;2022-09-03T08:03:53;9.30;;;8.50;;
70667;SDS011;58242;51.250;-1.118;2022-09-03T08:06:19;10.15;;;9.45;;
70667;SDS011;58242;51.250;-1.118;2022-09-03T08:08:46;10.48;;;9.68;;
70667;SDS011;58242;51.250;-1.118;2022-09-03T08:11:16;8.65;;;7.95;;
70667;SDS011;58242;51.250;-1.118;2022-09-03T08:13:45;7.43;;;6.93;;
70667;SDS011;58242;51.250;-1.118;2022-09-03T08:16:13;9.40;;;8.70;;
70667;SDS011;58242;51.250;-1.118;2022-09-03T08:18:44;8.60;;;7.90;;
70667;SDS011;58242;51.250;-1.118;2022-09-03T08:21:15;8.40;;;7.70;;
70667;SDS011;58242;51.250;-1.118;2022-09-03T08:23:42;9.45;;;8.70;;
70667;SDS011;58242;51.250;-1.118;2022-09-03T08:26:09;10.07;;;9.07;;
70667;SDS011;58242;51.250;-1.118;2022-09-03T08:28:36;10.90;;;9.90;;
70667;SDS011;58242;51.250;-1.118;2022-09-03T08:31:09;7.32;;;6.63;;
70667;SDS011;58242;51.250;-1.118;2022-09-03T08:33:46;8.15;;;7.40;;
70667;SDS011;58242;51.250;-1.118;2022-09-03T08:36:14;8.85;;;7.85;;
70667;SDS011;58242;51.250;-1.118;2022-09-03T08:38:45;7.03;;;6.43;;
70667;SDS011;58242;51.250;-1.118;2022-09-03T08:41:14;6.35;;;5.75;;
70667;SDS011;58242;51.250;-1.118;2022-09-03T08:46:15;5.15;;;4.85;;
70667;SDS011;58242;51.250;-1.118;2022-09-03T08:48:41;5.55;;;4.75;;
70667;SDS011;58242;51.250;-1.118;2022-09-03T08:51:06;5.68;;;5.20;;
70667;SDS011;58242;51.250;-1.118;2022-09-03T08:53:37;5.18;;;4.75;;
70667;SDS011;58242;51.250;-1.118;2022-09-03T08:56:10;4.80;;;4.50;;
70667;SDS011;58242;51.250;-1.118;2022-09-03T08:58:38;6.05;;;5.55;;
70667;SDS011;58242;51.250;-1.118;2022-09-03T09:06:07;4.90;;;4.50;;
70667;SDS011;58242;51.250;-1.118;2022-09-03T09:14:47;5.90;;;4.88;;
70667;SDS011;58242;51.250;-1.118;2022-09-03T09:20:02;7.20;;;6.57;;
70667;SDS011;58242;51.250;-1.118;2022-09-03T09:22:33;4.40;;;4.10;;
70667;SDS011;58242;51.250;-1.118;2022-09-03T09:25:06;6.70;;;6.20;;
70667;SDS011;58242;51.250;-1.118;2022-09-03T09:27:38;5.25;;;4.75;;
70667;SDS011;58242;51.250;-1.118;2022-09-03T09:30:11;5.60;;;5.20;;
70667;SDS011;58242;51.250;-1.118;2022-09-03T09:32:42;4.28;;;3.90;;
70667;SDS011;58242;51.250;-1.118;2022-09-03T09:35:08;4.47;;;4.18;;
70667;SDS011;58242;51.250;-1.118;2022-09-03T09:37:34;5.70;;;5.13;;
70667;SDS011;58242;51.250;-1.118;2022-09-03T09:40:20;4.47;;;4.18;;
70667;SDS011;58242;51.250;-1.118;2022-09-03T09:42:47;4.50;;;4.13;;
70667;SDS011;58242;51.250;-1.118;2022-09-03T09:45:13;4.80;;;4.40;;
70667;SDS011;58242;51.250;-1.118;2022-09-03T09:47:38;4.22;;;3.95;;
70667;SDS011;58242;51.250;-1.118;2022-09-03T09:50:14;5.20;;;4.72;;
70667;SDS011;58242;51.250;-1.118;2022-09-03T09:52:41;5.82;;;5.32;;
70667;SDS011;58242;51.250;-1.118;2022-09-03T09:55:15;6.03;;;5.20;;
70667;SDS011;58242;51.250;-1.118;2022-09-03T09:57:43;4.30;;;3.97;;
70667;SDS011;58242;51.250;-1.118;2022-09-03T10:00:09;4.38;;;4.07;;
70667;SDS011;58242;51.250;-1.118;2022-09-03T10:02:50;4.70;;;4.40;;
70667;SDS011;58242;51.250;-1.118;2022-09-03T10:05:24;5.95;;;5.32;;
70667;SDS011;58242;51.250;-1.118;2022-09-03T10:07:55;5.13;;;4.72;;
70667;SDS011;58242;51.250;-1.118;2022-09-03T10:10:23;6.88;;;6.28;;
70667;SDS011;58242;51.250;-1.118;2022-09-03T10:12:57;4.50;;;4.20;;
70667;SDS011;58242;51.250;-1.118;2022-09-03T10:15:38;6.55;;;6.05;;
70667;SDS011;58242;51.250;-1.118;2022-09-03T10:18:40;5.22;;;4.82;;
70667;SDS011;58242;51.250;-1.118;2022-09-03T10:23:47;5.22;;;4.82;;
70667;SDS011;58242;51.250;-1.118;2022-09-03T10:26:20;5.78;;;5.38;;
70667;SDS011;58242;51.250;-1.118;2022-09-03T10:28:55;5.72;;;4.88;;
70667;SDS011;58242;51.250;-1.118;2022-09-03T10:41:45;4.85;;;4.38;;
70667;SDS011;58242;51.250;-1.118;2022-09-03T10:44:30;4.72;;;4.35;;
70667;SDS011;58242;51.250;-1.118;2022-09-03T10:47:31;4.30;;;4.00;;
70667;SDS011;58242;51.250;-1.118;2022-09-03T10:55:54;5.32;;;4.93;;
70667;SDS011;58242;51.250;-1.118;2022-09-03T10:58:28;4.40;;;4.10;;
70667;SDS011;58242;51.250;-1.118;2022-09-03T11:04:18;4.45;;;4.15;;
70667;SDS011;58242;51.250;-1.118;2022-09-03T11:11:58;4.18;;;3.88;;
70667;SDS011;58242;51.250;-1.118;2022-09-03T11:14:29;4.93;;;4.40;;
70667;SDS011;58242;51.250;-1.118;2022-09-03T11:17:01;3.55;;;3.33;;
70667;SDS011;58242;51.250;-1.118;2022-09-03T11:19:55;4.10;;;3.80;;
70667;SDS011;58242;51.250;-1.118;2022-09-03T11:22:40;4.53;;;4.22;;
70667;SDS011;58242;51.250;-1.118;2022-09-03T11:25:08;4.30;;;3.90;;
70667;SDS011;58242;51.250;-1.118;2022-09-03T11:30:14;4.07;;;3.80;;
70667;SDS011;58242;51.250;-1.118;2022-09-03T11:35:27;4.90;;;4.50;;
70667;SDS011;58242;51.250;-1.118;2022-09-03T11:38:02;4.40;;;4.10;;
70667;SDS011;58242;51.250;-1.118;2022-09-03T11:40:36;5.75;;;4.82;;
70667;SDS011;58242;51.250;-1.118;2022-09-03T11:43:06;7.00;;;4.43;;
70667;SDS011;58242;51.250;-1.118;2022-09-03T11:45:47;4.00;;;3.70;;
70667;SDS011;58242;51.250;-1.118;2022-09-03T11:48:16;3.90;;;3.70;;
70667;SDS011;58242;51.250;-1.118;2022-09-03T11:51:00;3.60;;;3.33;;
70667;SDS011;58242;51.250;-1.118;2022-09-03T11:53:31;3.88;;;3.65;;
70667;SDS011;58242;51.250;-1.118;2022-09-03T11:56:11;4.30;;;4.00;;
70667;SDS011;58242;51.250;-1.118;2022-09-03T11:58:41;3.70;;;3.38;;
70667;SDS011;58242;51.250;-1.118;2022-09-03T12:01:08;3.90;;;3.60;;
70667;SDS011;58242;51.250;-1.118;2022-09-03T12:20:02;2.83;;;2.63;;
70667;SDS011;58242;51.250;-1.118;2022-09-03T12:22:36;2.75;;;2.55;;
70667;SDS011;58242;51.250;-1.118;2022-09-03T12:25:12;2.72;;;2.45;;
70667;SDS011;58242;51.250;-1.118;2022-09-03T12:27:40;3.13;;;2.78;;
70667;SDS011;58242;51.250;-1.118;2022-09-03T12:32:45;3.08;;;2.88;;
70667;SDS011;58242;51.250;-1.118;2022-09-03T12:35:22;3.28;;;2.97;;
70667;SDS011;58242;51.250;-1.118;2022-09-03T12:37:50;3.38;;;3.08;;
70667;SDS011;58242;51.250;-1.118;2022-09-03T12:40:18;2.53;;;2.42;;
70667;SDS011;58242;51.250;-1.118;2022-09-03T12:42:46;3.83;;;3.53;;
70667;SDS011;58242;51.250;-1.118;2022-09-03T12:45:12;2.45;;;2.25;;
70667;SDS011;58242;51.250;-1.118;2022-09-03T12:47:40;2.90;;;2.60;;
70667;SDS011;58242;51.250;-1.118;2022-09-03T12:52:37;3.30;;;3.05;;
70667;SDS011;58242;51.250;-1.118;2022-09-03T12:55:07;2.70;;;2.60;;
70667;SDS011;58242;51.250;-1.118;2022-09-03T12:57:50;2.90;;;2.63;;
70667;SDS011;58242;51.250;-1.118;2022-09-03T13:00:41;2.90;;;2.72;;
70667;SDS011;58242;51.250;-1.118;2022-09-03T13:03:15;2.45;;;2.35;;
70667;SDS011;58242;51.250;-1.118;2022-09-03T13:05:49;4.05;;;3.00;;
70667;SDS011;58242;51.250;-1.118;2022-09-03T13:08:21;3.15;;;2.95;;
70667;SDS011;58242;51.250;-1.118;2022-09-03T13:10:50;3.70;;;3.40;;
70667;SDS011;58242;51.250;-1.118;2022-09-03T13:13:23;3.58;;;2.92;;
70667;SDS011;58242;51.250;-1.118;2022-09-03T13:24:04;4.75;;;4.30;;
70667;SDS011;58242;51.250;-1.118;2022-09-03T13:31:39;4.20;;;3.65;;
70667;SDS011;58242;51.250;-1.118;2022-09-03T13:34:10;4.18;;;3.80;;
70667;SDS011;58242;51.250;-1.118;2022-09-03T13:37:16;5.43;;;4.22;;
70667;SDS011;58242;51.250;-1.118;2022-09-03T13:39:57;4.72;;;4.35;;
70667;SDS011;58242;51.250;-1.118;2022-09-03T13:42:37;4.22;;;3.83;;
70667;SDS011;58242;51.250;-1.118;2022-09-03T13:45:22;3.78;;;3.47;;
70667;SDS011;58242;51.250;-1.118;2022-09-03T13:51:08;3.63;;;3.33;;
70667;SDS011;58242;51.250;-1.118;2022-09-03T13:53:41;3.00;;;2.80;;
70667;SDS011;58242;51.250;-1.118;2022-09-03T13:58:56;3.75;;;2.83;;
70667;SDS011;58242;51.250;-1.118;2022-09-03T14:01:44;4.15;;;3.75;;
70667;SDS011;58242;51.250;-1.118;2022-09-03T14:04:24;4.63;;;3.95;;
70667;SDS011;58242;51.250;-1.118;2022-09-03T14:07:02;3.75;;;3.45;;
70667;SDS011;58242;51.250;-1.118;2022-09-03T14:12:24;3.55;;;3.25;;
70667;SDS011;58242;51.250;-1.118;2022-09-03T14:23:39;5.22;;;4.72;;
70667;SDS011;58242;51.250;-1.118;2022-09-03T14:26:28;4.45;;;4.05;;
70667;SDS011;58242;51.250;-1.118;2022-09-03T14:28:59;4.22;;;3.83;;
70667;SDS011;58242;51.250;-1.118;2022-09-03T14:37:08;3.45;;;3.25;;
70667;SDS011;58242;51.250;-1.118;2022-09-03T14:40:10;4.18;;;3.85;;
70667;SDS011;58242;51.250;-1.118;2022-09-03T14:42:49;3.92;;;3.55;;
70667;SDS011;58242;51.250;-1.118;2022-09-03T14:45:26;5.50;;;5.00;;
70667;SDS011;58242;51.250;-1.118;2022-09-03T14:48:10;3.90;;;3.50;;
70667;SDS011;58242;51.250;-1.118;2022-09-03T14:59:29;4.88;;;4.45;;
70667;SDS011;58242;51.250;-1.118;2022-09-03T15:07:41;7.20;;;4.15;;
70667;SDS011;58242;51.250;-1.118;2022-09-03T15:12:54;4.90;;;4.50;;
70667;SDS011;58242;51.250;-1.118;2022-09-03T15:15:26;4.97;;;4.15;;
70667;SDS011;58242;51.250;-1.118;2022-09-03T15:20:57;5.03;;;4.55;;
70667;SDS011;58242;51.250;-1.118;2022-09-03T15:23:40;5.60;;;5.05;;
70667;SDS011;58242;51.250;-1.118;2022-09-03T15:37:26;8.32;;;7.00;;
70667;SDS011;58242;51.250;-1.118;2022-09-03T15:39:58;7.15;;;5.72;;
70667;SDS011;58242;51.250;-1.118;2022-09-03T15:42:28;5.43;;;4.93;;
70667;SDS011;58242;51.250;-1.118;2022-09-03T15:44:55;6.03;;;4.97;;
70667;SDS011;58242;51.250;-1.118;2022-09-03T15:50:03;5.88;;;4.88;;
70667;SDS011;58242;51.250;-1.118;2022-09-03T15:55:37;8.20;;;4.63;;
70667;SDS011;58242;51.250;-1.118;2022-09-03T15:58:08;5.63;;;4.30;;
70667;SDS011;58242;51.250;-1.118;2022-09-03T16:00:57;6.85;;;4.60;;
70667;SDS011;58242;51.250;-1.118;2022-09-03T16:03:42;4.50;;;3.75;;
70667;SDS011;58242;51.250;-1.118;2022-09-03T16:28:23;4.22;;;3.05;;
70667;SDS011;58242;51.250;-1.118;2022-09-03T16:31:02;4.18;;;3.80;;
70667;SDS011;58242;51.250;-1.118;2022-09-03T16:36:50;3.35;;;3.05;;
70667;SDS011;58242;51.250;-1.118;2022-09-03T16:42:22;4.60;;;4.07;;
70667;SDS011;58242;51.250;-1.118;2022-09-03T17:09:53;4.22;;;3.92;;
70667;SDS011;58242;51.250;-1.118;2022-09-03T17:19:55;5.20;;;4.70;;
70667;SDS011;58242;51.250;-1.118;2022-09-03T17:42:26;3.90;;;3.50;;
70667;SDS011;58242;51.250;-1.118;2022-09-03T17:52:50;5.13;;;4.10;;
70667;SDS011;58242;51.250;-1.118;2022-09-03T17:58:40;3.60;;;3.30;;
70667;SDS011;58242;51.250;-1.118;2022-09-03T18:01:03;3.70;;;3.40;;
70667;SDS011;58242;51.250;-1.118;2022-09-03T18:03:50;3.75;;;3.45;;
70667;SDS011;58242;51.250;-1.118;2022-09-03T18:06:43;3.92;;;3.20;;
70667;SDS011;58242;51.250;-1.118;2022-09-03T18:09:23;3.50;;;3.20;;
70667;SDS011;58242;51.250;-1.118;2022-09-03T18:20:10;3.20;;;3.00;;
70667;SDS011;58242;51.250;-1.118;2022-09-03T18:23:11;3.97;;;2.90;;
70667;SDS011;58242;51.250;-1.118;2022-09-03T18:26:04;2.92;;;2.72;;
70667;SDS011;58242;51.250;-1.118;2022-09-03T18:28:56;2.88;;;2.67;;
70667;SDS011;58242;51.250;-1.118;2022-09-03T18:31:44;2.70;;;2.50;;
70667;SDS011;58242;51.250;-1.118;2022-09-03T18:34:33;2.50;;;2.30;;
70667;SDS011;58242;51.250;-1.118;2022-09-03T18:37:22;3.20;;;2.90;;
70667;SDS011;58242;51.250;-1.118;2022-09-03T18:40:09;3.25;;;3.05;;
70667;SDS011;58242;51.250;-1.118;2022-09-03T18:43:04;2.58;;;2.38;;
70667;SDS011;58242;51.250;-1.118;2022-09-03T18:46:01;2.47;;;2.33;;
70667;SDS011;58242;51.250;-1.118;2022-09-03T18:54:50;2.92;;;2.50;;
70667;SDS011;58242;51.250;-1.118;2022-09-03T18:57:58;3.42;;;2.47;;
70667;SDS011;58242;51.250;-1.118;2022-09-03T19:00:58;2.72;;;2.50;;
70667;SDS011;58242;51.250;-1.118;2022-09-03T19:03:53;3.75;;;2.78;;
70667;SDS011;58242;51.250;-1.118;2022-09-03T19:19:36;2.70;;;2.50;;
70667;SDS011;58242;51.250;-1.118;2022-09-03T19:22:33;2.50;;;2.40;;
70667;SDS011;58242;51.250;-1.118;2022-09-03T19:25:19;2.67;;;2.53;;
70667;SDS011;58242;51.250;-1.118;2022-09-03T19:31:04;2.65;;;2.47;;
70667;SDS011;58242;51.250;-1.118;2022-09-03T19:45:53;2.65;;;2.45;;
70667;SDS011;58242;51.250;-1.118;2022-09-03T19:52:16;3.67;;;2.72;;
70667;SDS011;58242;51.250;-1.118;2022-09-03T19:57:59;2.65;;;2.45;;
70667;SDS011;58242;51.250;-1.118;2022-09-03T20:00:44;2.60;;;2.30;;
70667;SDS011;58242;51.250;-1.118;2022-09-03T20:03:28;2.83;;;2.55;;
70667;SDS011;58242;51.250;-1.118;2022-09-03T20:06:13;2.95;;;2.75;;
70667;SDS011;58242;51.250;-1.118;2022-09-03T20:08:59;3.20;;;2.70;;
70667;SDS011;58242;51.250;-1.118;2022-09-03T20:11:48;2.90;;;2.58;;
70667;SDS011;58242;51.250;-1.118;2022-09-03T20:14:14;2.90;;;2.70;;
70667;SDS011;58242;51.250;-1.118;2022-09-03T20:16:50;2.50;;;2.40;;
70667;SDS011;58242;51.250;-1.118;2022-09-03T20:27:29;2.90;;;2.70;;
70667;SDS011;58242;51.250;-1.118;2022-09-03T20:30:03;2.78;;;2.42;;
70667;SDS011;58242;51.250;-1.118;2022-09-03T20:32:47;2.90;;;2.60;;
70667;SDS011;58242;51.250;-1.118;2022-09-03T20:41:19;2.58;;;2.38;;
70667;SDS011;58242;51.250;-1.118;2022-09-03T20:44:57;4.20;;;2.85;;
70667;SDS011;58242;51.250;-1.118;2022-09-03T20:55:24;4.97;;;2.80;;
70667;SDS011;58242;51.250;-1.118;2022-09-03T20:58:08;2.70;;;2.50;;
70667;SDS011;58242;51.250;-1.118;2022-09-03T21:09:08;2.72;;;2.33;;
70667;SDS011;58242;51.250;-1.118;2022-09-03T21:12:03;3.60;;;3.25;;